Brock, Nebraska
Current Conditions -  °F | °C
As of 12:55 AM on Monday 24 Nov 2014 (Local Time) from KAFK Reporting Station
Clear Clear  
Wind Chill: 19°   Ceiling: Unl
Heat Index: 32°   Visibility: 10mi
Dew Point: 19°   Wind: 21mph
Humidity: 61%   Direction: 320°NW
Pressure: 29.53"   Gusts: 28mph
Location:  40.48°N, 95.96°W
Report Text: KAFK 240655Z AUTO 32018G24KT 10SM CLR 00/M07 A2953 RMK AO2 T10021070
Loading
Personal Weather Stations






























Interactive Weather Map New forecast layout! Learn more

10-Day Weather Forecast

Advertisements
Track Severe Weather on mobile